This is the latest recevied weather packets stored in our database for station/object W1SGB. If no packets are shown the sender has not sent any weather packets the latest 10 day(s).
| Time | Temp. | Humidity | Pressure | Rain* | Wind** | Luminosity | Snow |
|---|---|---|---|---|---|---|---|
| 1777716030 | 7.22° C | 93% | 1011.4 hPa | 0 mm | - | 4 W/m² | - |
| 1777714830 | 7.22° C | 92% | 1011.2 hPa | 0 mm | - | 1 W/m² | - |
| 1777713031 | 7.22° C | 92% | 1011.4 hPa | 0 mm | - | 0 W/m² | - |
| 1777712431 | 7.22° C | 91% | 1011.2 hPa | 0.25 mm | - | 0 W/m² | - |
| 1777702218 | 8.33° C | 78% | 1011.6 hPa | 0 mm | - | 0 W/m² | - |
| 1777701019 | 7.78° C | 78% | 1011.7 hPa | 0 mm | - | 0 W/m² | - |
| 1777699219 | 7.22° C | 79% | 1011.8 hPa | 0 mm | - | 0 W/m² | - |
| 1777696220 | 7.78° C | 75% | 1011.8 hPa | 0 mm | - | 0 W/m² | - |
| 1777695620 | 7.78° C | 75% | 1011.9 hPa | 0 mm | - | 0 W/m² | - |
| 1777693838 | 8.33° C | 73% | 1011.9 hPa | 0 mm | - | 0 W/m² | - |
| 1777690819 | 8.33° C | 71% | 1011.9 hPa | 0 mm | - | 0 W/m² | - |
| 1777689019 | 7.78° C | 72% | 1011.9 hPa | 0 mm | - | 0 W/m² | - |
| 1777688417 | 7.22° C | 72% | 1012 hPa | 0 mm | - | 0 W/m² | - |
| 1777682418 | 10.56° C | 55% | 1011 hPa | 0 mm | - | 0 W/m² | - |
| 1777678819 | 14.44° C | 42% | 1010.1 hPa | 0 mm | - | 5 W/m² | - |
| 1777677020 | 15.56° C | 37% | 1009.6 hPa | 0 mm | - | 22 W/m² | - |
| 1777673417 | 17.22° C | 34% | 1009.4 hPa | 0 mm | - | 197 W/m² | - |
| 1777670418 | 17.78° C | 35% | 1009 hPa | 0.25 mm | - | 365 W/m² | - |
| 1777668619 | 17.22° C | 36% | 1009 hPa | 0 mm | - | 469 W/m² | - |
| 1777664438 | 16.67° C | 40% | 1009 hPa | 0 mm | - | 720 W/m² | - |
| 1777663817 | 16.67° C | 38% | 1009.2 hPa | 0 mm | - | 416 W/m² | - |
| 1777663217 | 16.67° C | 39% | 1009.2 hPa | 0 mm | - | 759 W/m² | - |
| 1777662620 | 16.11° C | 42% | 1009.2 hPa | 0 mm | - | 793 W/m² | - |
| 1777661419 | 15.56° C | 40% | 1009.4 hPa | 0 mm | - | 749 W/m² | - |
| 1777660238 | 16.11° C | 42% | 1009.5 hPa | 0 mm | - | 715 W/m² | - |
* Rain latest hour (hover to see other rain measurements)
** Current wind speed in m/s (hover to see current wind gust speed)